createdAt,value
2018-06-27T00:00:06.991Z,1017.83
2018-06-27T00:01:06.983Z,1017.82
2018-06-27T00:02:06.972Z,1017.88
2018-06-27T00:03:06.987Z,1017.82
2018-06-27T00:04:06.947Z,1017.82
2018-06-27T00:05:06.937Z,1017.79
2018-06-27T00:06:06.925Z,1017.79
2018-06-27T00:07:06.920Z,1017.82
2018-06-27T00:08:06.903Z,1017.81
2018-06-27T00:09:06.915Z,1017.82
2018-06-27T00:10:06.887Z,1017.77
2018-06-27T00:11:06.885Z,1017.77
2018-06-27T00:12:06.862Z,1017.78
2018-06-27T00:13:06.849Z,1017.77
2018-06-27T00:14:06.867Z,1017.74
2018-06-27T00:15:06.828Z,1017.79
2018-06-27T00:16:06.818Z,1017.75
2018-06-27T00:17:06.806Z,1017.78
2018-06-27T00:18:06.798Z,1017.75
2018-06-27T00:19:06.815Z,1017.74
2018-06-27T00:20:06.774Z,1017.75
2018-06-27T00:21:06.766Z,1017.70
2018-06-27T00:22:06.752Z,1017.72
2018-06-27T00:23:06.747Z,1017.75
2018-06-27T00:24:06.775Z,1017.78
2018-06-27T00:25:06.718Z,1017.78
2018-06-27T00:26:06.708Z,1017.75
2018-06-27T00:27:06.697Z,1017.74
2018-06-27T00:28:06.686Z,1017.76
2018-06-27T00:29:06.677Z,1017.75
2018-06-27T00:30:06.687Z,1017.74
2018-06-27T00:31:06.653Z,1017.71
2018-06-27T00:32:06.643Z,1017.72
2018-06-27T00:33:06.631Z,1017.69
2018-06-27T00:34:06.635Z,1017.69
2018-06-27T00:35:06.634Z,1017.70
2018-06-27T00:36:06.599Z,1017.70
2018-06-27T00:37:06.589Z,1017.70
2018-06-27T00:38:06.578Z,1017.68
2018-06-27T00:39:06.571Z,1017.67
2018-06-27T00:40:06.580Z,1017.63
2018-06-27T00:41:06.546Z,1017.65
2018-06-27T00:42:06.538Z,1017.61
2018-06-27T00:43:06.526Z,1017.59
2018-06-27T00:44:06.514Z,1017.59
2018-06-27T00:45:06.538Z,1017.59
2018-06-27T00:46:06.491Z,1017.58
2018-06-27T00:47:06.493Z,1017.55
2018-06-27T00:48:06.472Z,1017.56
2018-06-27T00:49:06.461Z,1017.59
2018-06-27T00:50:06.449Z,1017.59
2018-06-27T00:51:06.462Z,1017.58
2018-06-27T00:52:06.429Z,1017.59
2018-06-27T00:53:06.421Z,1017.57
2018-06-27T00:54:06.408Z,1017.56
2018-06-27T00:55:06.395Z,1017.52
2018-06-27T00:56:06.411Z,1017.52
2018-06-27T00:57:06.382Z,1017.50
2018-06-27T00:58:06.362Z,1017.47
2018-06-27T00:59:06.360Z,1017.48
2018-06-27T01:00:06.341Z,1017.52
2018-06-27T01:01:06.329Z,1017.50
2018-06-27T01:02:06.346Z,1017.51
2018-06-27T01:03:06.308Z,1017.52
2018-06-27T01:04:06.298Z,1017.47
2018-06-27T01:05:06.287Z,1017.49
2018-06-27T01:06:06.277Z,1017.50
2018-06-27T01:07:06.307Z,1017.51
2018-06-27T01:08:06.253Z,1017.47
2018-06-27T01:09:06.242Z,1017.49
2018-06-27T01:10:06.244Z,1017.47
2018-06-27T01:11:06.228Z,1017.47
2018-06-27T01:12:06.240Z,1017.49
2018-06-27T01:13:06.200Z,1017.47
2018-06-27T01:14:06.188Z,1017.51
2018-06-27T01:15:06.178Z,1017.52
2018-06-27T01:16:06.169Z,1017.52
2018-06-27T01:17:06.155Z,1017.55
2018-06-27T01:18:06.170Z,1017.49
2018-06-27T01:19:06.140Z,1017.53
2018-06-27T01:20:06.143Z,1017.51
2018-06-27T01:21:06.113Z,1017.53
2018-06-27T01:22:06.109Z,1017.58
2018-06-27T01:23:06.114Z,1017.52
2018-06-27T01:24:06.081Z,1017.57
2018-06-27T01:25:06.073Z,1017.63
2018-06-27T01:26:06.059Z,1017.59
2018-06-27T01:27:06.051Z,1017.63
2018-06-27T01:28:06.063Z,1017.63
2018-06-27T01:29:06.041Z,1017.64
2018-06-27T01:30:06.015Z,1017.67
2018-06-27T01:31:06.004Z,1017.65
2018-06-27T01:32:05.993Z,1017.66
2018-06-27T01:33:06.035Z,1017.70
2018-06-27T01:34:05.977Z,1017.68
2018-06-27T01:35:05.963Z,1017.73
2018-06-27T01:36:05.950Z,1017.70
2018-06-27T01:37:05.940Z,1017.70
2018-06-27T01:38:05.928Z,1017.74
2018-06-27T01:39:05.942Z,1017.74
2018-06-27T01:40:05.910Z,1017.73
2018-06-27T01:41:05.897Z,1017.73
2018-06-27T01:42:05.886Z,1017.80
2018-06-27T01:43:05.884Z,1017.77
2018-06-27T01:44:05.888Z,1017.79
2018-06-27T01:45:05.854Z,1017.81
2018-06-27T01:46:05.844Z,1017.76
2018-06-27T01:47:05.834Z,1017.78
2018-06-27T01:48:05.822Z,1017.81
2018-06-27T01:49:05.845Z,1017.80
2018-06-27T01:50:05.800Z,1017.85
2018-06-27T01:51:05.790Z,1017.83
2018-06-27T01:52:05.779Z,1017.86
2018-06-27T01:53:05.771Z,1017.90
2018-06-27T01:54:05.760Z,1017.84
2018-06-27T01:55:05.778Z,1017.86
2018-06-27T01:56:05.738Z,1017.89
2018-06-27T01:57:05.729Z,1017.89
2018-06-27T01:58:05.716Z,1017.90
2018-06-27T01:59:05.708Z,1017.89
2018-06-27T02:00:05.717Z,1017.91
2018-06-27T02:01:05.686Z,1017.90
2018-06-27T02:02:05.672Z,1017.95
2018-06-27T02:03:05.663Z,1017.96
2018-06-27T02:04:05.652Z,1017.93
2018-06-27T02:05:05.665Z,1017.96
2018-06-27T02:06:05.631Z,1017.94
2018-06-27T02:07:05.627Z,1017.99
2018-06-27T02:08:05.609Z,1017.98
2018-06-27T02:09:05.601Z,1017.97
2018-06-27T02:10:05.610Z,1017.96
2018-06-27T02:11:05.579Z,1017.96
2018-06-27T02:12:05.566Z,1017.94
2018-06-27T02:13:05.561Z,1018.00
2018-06-27T02:14:05.546Z,1017.98
2018-06-27T02:15:05.566Z,1017.96
2018-06-27T02:16:05.538Z,1017.94
2018-06-27T02:17:05.513Z,1017.95
2018-06-27T02:18:05.503Z,1017.92
2018-06-27T02:19:05.492Z,1017.89
2018-06-27T02:20:05.482Z,1017.92
2018-06-27T02:21:05.494Z,1017.94
2018-06-27T02:22:05.463Z,1017.92
2018-06-27T02:23:05.450Z,1017.94
2018-06-27T02:24:05.439Z,1017.96
2018-06-27T02:25:05.429Z,1017.91
2018-06-27T02:26:05.460Z,1017.98
2018-06-27T02:27:05.407Z,1017.92
2018-06-27T02:28:05.397Z,1017.96
2018-06-27T02:29:05.402Z,1017.97
2018-06-27T02:30:05.380Z,1017.96
2018-06-27T02:31:05.396Z,1017.99
2018-06-27T02:32:05.357Z,1017.98
2018-06-27T02:33:05.343Z,1018.00
2018-06-27T02:34:05.335Z,1018.02
2018-06-27T02:35:05.325Z,1018.01
2018-06-27T02:36:05.316Z,1017.97
2018-06-27T02:37:05.349Z,1018.04
2018-06-27T02:38:05.291Z,1018.02
2018-06-27T02:39:05.301Z,1018.00
2018-06-27T02:40:05.270Z,1018.04
2018-06-27T02:41:05.259Z,1018.02
2018-06-27T02:42:05.249Z,1018.00
2018-06-27T02:43:05.262Z,1017.96
2018-06-27T02:44:05.226Z,1018.00
2018-06-27T02:45:05.217Z,1018.03
2018-06-27T02:46:05.206Z,1018.04
2018-06-27T02:47:05.200Z,1017.95
2018-06-27T02:48:05.212Z,1017.99
2018-06-27T02:49:05.176Z,1018.01
2018-06-27T02:50:05.165Z,1018.03
2018-06-27T02:51:05.158Z,1018.02
2018-06-27T02:52:05.149Z,1018.02
2018-06-27T02:53:05.155Z,1018.04
2018-06-27T02:54:05.121Z,1018.05
2018-06-27T02:55:05.110Z,1018.03
2018-06-27T02:56:05.100Z,1018.05
2018-06-27T02:57:05.089Z,1018.08
2018-06-27T02:58:05.108Z,1018.05
2018-06-27T02:59:05.078Z,1018.06
2018-06-27T03:00:05.059Z,1018.09
2018-06-27T03:01:05.047Z,1018.12
2018-06-27T03:02:05.051Z,1018.06
2018-06-27T03:03:05.056Z,1018.10
2018-06-27T03:04:05.016Z,1018.05
2018-06-27T03:05:05.007Z,1018.10
2018-06-27T03:06:04.998Z,1018.13
2018-06-27T03:07:04.983Z,1018.10
2018-06-27T03:08:04.975Z,1018.12
2018-06-27T03:09:04.996Z,1018.09
2018-06-27T03:10:04.954Z,1018.10
2018-06-27T03:11:04.941Z,1018.12
2018-06-27T03:12:04.952Z,1018.14
2018-06-27T03:13:04.918Z,1018.10
2018-06-27T03:14:04.910Z,1018.12
2018-06-27T03:15:04.933Z,1018.11
2018-06-27T03:16:04.886Z,1018.13
2018-06-27T03:17:04.876Z,1018.12
2018-06-27T03:18:04.869Z,1018.14
2018-06-27T03:19:04.855Z,1018.13
2018-06-27T03:20:04.873Z,1018.15
2018-06-27T03:21:04.838Z,1018.14
2018-06-27T03:22:04.823Z,1018.16
2018-06-27T03:23:04.812Z,1018.16
2018-06-27T03:24:04.802Z,1018.16
2018-06-27T03:25:04.832Z,1018.14
2018-06-27T03:26:04.780Z,1018.16
2018-06-27T03:27:04.769Z,1018.18
2018-06-27T03:28:04.760Z,1018.17
2018-06-27T03:29:04.747Z,1018.14
2018-06-27T03:30:04.738Z,1018.16
2018-06-27T03:31:04.750Z,1018.17
2018-06-27T03:32:04.717Z,1018.18
2018-06-27T03:33:04.705Z,1018.19
2018-06-27T03:34:04.695Z,1018.19
2018-06-27T03:35:04.707Z,1018.21
2018-06-27T03:36:04.703Z,1018.15
2018-06-27T03:37:04.663Z,1018.16
2018-06-27T03:38:04.653Z,1018.14
2018-06-27T03:39:04.642Z,1018.13
2018-06-27T03:40:04.630Z,1018.14
2018-06-27T03:41:04.643Z,1018.12
2018-06-27T03:42:04.609Z,1018.16
2018-06-27T03:43:04.599Z,1018.14
2018-06-27T03:44:04.587Z,1018.16
2018-06-27T03:45:04.577Z,1018.19
2018-06-27T03:46:04.598Z,1018.23
2018-06-27T03:47:04.557Z,1018.23
2018-06-27T03:48:04.546Z,1018.22
2018-06-27T03:49:04.535Z,1018.14
2018-06-27T03:50:04.524Z,1018.21
2018-06-27T03:51:04.514Z,1018.18
2018-06-27T03:52:04.528Z,1018.21
2018-06-27T03:53:04.496Z,1018.25
2018-06-27T03:54:04.482Z,1018.23
2018-06-27T03:55:04.495Z,1018.25
2018-06-27T03:56:04.460Z,1018.21
2018-06-27T03:57:04.475Z,1018.22
2018-06-27T03:58:04.455Z,1018.24
2018-06-27T03:59:04.474Z,1018.27
2018-06-27T04:00:04.418Z,1018.24
2018-06-27T04:01:04.411Z,1018.25
2018-06-27T04:02:04.421Z,1018.27
2018-06-27T04:03:04.386Z,1018.26
2018-06-27T04:04:04.376Z,1018.28
2018-06-27T04:05:04.365Z,1018.33
2018-06-27T04:06:04.356Z,1018.33
2018-06-27T04:07:04.367Z,1018.32
2018-06-27T04:08:04.339Z,1018.35
2018-06-27T04:09:04.323Z,1018.36
2018-06-27T04:10:04.315Z,1018.33
2018-06-27T04:11:04.319Z,1018.33
2018-06-27T04:12:04.326Z,1018.41
2018-06-27T04:13:04.482Z,1018.40
2018-06-27T04:14:04.270Z,1018.42
2018-06-27T04:15:04.260Z,1018.39
2018-06-27T04:16:04.248Z,1018.40
2018-06-27T04:17:04.240Z,1018.44
2018-06-27T04:18:04.249Z,1018.45
2018-06-27T04:19:04.220Z,1018.45
2018-06-27T04:20:04.232Z,1018.45
2018-06-27T04:21:04.268Z,1018.50
2018-06-27T04:22:04.184Z,1018.43
2018-06-27T04:23:04.219Z,1018.46
2018-06-27T04:24:04.162Z,1018.49
2018-06-27T04:25:04.152Z,1018.52
2018-06-27T04:26:04.147Z,1018.49
2018-06-27T04:27:04.131Z,1018.45
2018-06-27T04:28:04.120Z,1018.49
2018-06-27T04:29:04.139Z,1018.50
2018-06-27T04:30:04.099Z,1018.48
2018-06-27T04:31:04.088Z,1018.52
2018-06-27T04:32:04.077Z,1018.49
2018-06-27T04:33:04.066Z,1018.48
2018-06-27T04:34:04.096Z,1018.47
2018-06-27T04:35:04.044Z,1018.47
2018-06-27T04:36:04.035Z,1018.49
2018-06-27T04:37:04.024Z,1018.49
2018-06-27T04:38:04.017Z,1018.49
2018-06-27T04:39:04.030Z,1018.48
2018-06-27T04:40:03.993Z,1018.51
2018-06-27T04:41:03.982Z,1018.53
2018-06-27T04:42:03.970Z,1018.54
2018-06-27T04:43:03.969Z,1018.53
2018-06-27T04:44:03.966Z,1018.48
2018-06-27T04:45:03.969Z,1018.52
2018-06-27T04:46:03.930Z,1018.47
2018-06-27T04:47:03.917Z,1018.48
2018-06-27T04:48:03.907Z,1018.50
2018-06-27T04:49:03.896Z,1018.50
2018-06-27T04:50:03.915Z,1018.55
2018-06-27T04:51:03.874Z,1018.54
2018-06-27T04:52:03.865Z,1018.51
2018-06-27T04:53:03.862Z,1018.48
2018-06-27T04:54:03.845Z,1018.48
2018-06-27T04:55:03.865Z,1018.48
2018-06-27T04:56:03.822Z,1018.45
2018-06-27T04:57:03.815Z,1018.50
2018-06-27T04:58:03.799Z,1018.47
2018-06-27T04:59:03.788Z,1018.53
2018-06-27T05:00:03.782Z,1018.49
2018-06-27T05:01:03.791Z,1018.52
2018-06-27T05:02:03.756Z,1018.51
2018-06-27T05:03:03.747Z,1018.52
2018-06-27T05:04:03.734Z,1018.55
2018-06-27T05:05:03.726Z,1018.53
2018-06-27T05:06:03.735Z,1018.51
2018-06-27T05:07:03.713Z,1018.42
2018-06-27T05:08:03.691Z,1018.49
2018-06-27T05:09:03.679Z,1018.49
2018-06-27T05:10:03.671Z,1018.50
2018-06-27T05:11:03.689Z,1018.53
2018-06-27T05:12:03.646Z,1018.49
2018-06-27T05:13:03.636Z,1018.53
2018-06-27T05:14:03.627Z,1018.47
2018-06-27T05:15:03.614Z,1018.47
2018-06-27T05:16:03.752Z,1018.51
2018-06-27T05:17:03.633Z,1018.45
2018-06-27T05:18:03.583Z,1018.42
2018-06-27T05:19:03.573Z,1018.42
2018-06-27T05:20:03.563Z,1018.41
2018-06-27T05:21:03.551Z,1018.45
2018-06-27T05:22:03.583Z,1018.44
2018-06-27T05:23:03.527Z,1018.39
2018-06-27T05:24:03.516Z,1018.42
2018-06-27T05:25:03.506Z,1018.37
2018-06-27T05:26:03.500Z,1018.38
2018-06-27T05:27:03.486Z,1018.42
2018-06-27T05:28:03.547Z,1018.41
2018-06-27T05:29:03.464Z,1018.43
2018-06-27T05:30:03.458Z,1018.44
2018-06-27T05:31:03.440Z,1018.42
2018-06-27T05:32:03.430Z,1018.48
2018-06-27T05:33:03.451Z,1018.43
2018-06-27T05:34:03.495Z,1018.41
2018-06-27T05:35:03.396Z,1018.42
2018-06-27T05:36:03.385Z,1018.40
2018-06-27T05:37:03.374Z,1018.45
2018-06-27T05:38:03.363Z,1018.44
2018-06-27T05:39:03.376Z,1018.48
2018-06-27T05:40:03.365Z,1018.49
2018-06-27T05:41:03.333Z,1018.53
2018-06-27T05:42:03.320Z,1018.52
2018-06-27T05:43:03.310Z,1018.52
2018-06-27T05:44:03.321Z,1018.51
2018-06-27T05:45:03.292Z,1018.52
2018-06-27T05:46:03.277Z,1018.54
2018-06-27T05:47:03.266Z,1018.53
2018-06-27T05:48:03.255Z,1018.51
2018-06-27T05:49:03.277Z,1018.54
2018-06-27T05:50:03.236Z,1018.53
2018-06-27T05:51:03.222Z,1018.54
2018-06-27T05:52:03.212Z,1018.55
2018-06-27T05:53:03.207Z,1018.57
2018-06-27T05:54:03.190Z,1018.53
2018-06-27T05:55:03.203Z,1018.53
2018-06-27T05:56:03.168Z,1018.49
2018-06-27T05:57:03.157Z,1018.50
2018-06-27T05:58:03.157Z,1018.48
2018-06-27T05:59:03.135Z,1018.47
2018-06-27T06:00:03.149Z,1018.47
2018-06-27T06:01:03.114Z,1018.42
2018-06-27T06:02:03.103Z,1018.43
2018-06-27T06:03:03.112Z,1018.44
2018-06-27T06:04:03.083Z,1018.42
2018-06-27T06:05:03.104Z,1018.37
2018-06-27T06:06:03.060Z,1018.38
2018-06-27T06:07:03.051Z,1018.41
2018-06-27T06:08:03.039Z,1018.39
2018-06-27T06:09:03.028Z,1018.41
2018-06-27T06:10:03.028Z,1018.36
2018-06-27T06:11:03.035Z,1018.32
2018-06-27T06:12:02.995Z,1018.33
2018-06-27T06:13:03.005Z,1018.32
2018-06-27T06:14:02.974Z,1018.34
2018-06-27T06:15:02.966Z,1018.33
2018-06-27T06:16:02.981Z,1018.33
2018-06-27T06:17:02.942Z,1018.33
2018-06-27T06:18:02.933Z,1018.36
2018-06-27T06:19:02.923Z,1018.33
2018-06-27T06:20:03.000Z,1018.37
2018-06-27T06:21:02.934Z,1018.35
2018-06-27T06:22:02.892Z,1018.36
2018-06-27T06:23:02.878Z,1018.38
2018-06-27T06:24:02.868Z,1018.34
2018-06-27T06:25:02.857Z,1018.34
2018-06-27T06:26:02.869Z,1018.33
2018-06-27T06:27:02.859Z,1018.36
2018-06-27T06:28:02.827Z,1018.35
2018-06-27T06:29:02.813Z,1018.36
2018-06-27T06:30:02.803Z,1018.34
2018-06-27T06:31:02.794Z,1018.35
2018-06-27T06:32:02.850Z,1018.34
2018-06-27T06:33:02.774Z,1018.28
2018-06-27T06:34:02.764Z,1018.29
2018-06-27T06:35:02.749Z,1018.29
2018-06-27T06:36:02.739Z,1018.31
2018-06-27T06:37:02.756Z,1018.27
2018-06-27T06:38:02.719Z,1018.30
2018-06-27T06:39:02.720Z,1018.29
2018-06-27T06:40:02.696Z,1018.28
2018-06-27T06:41:02.693Z,1018.26
2018-06-27T06:42:02.700Z,1018.21
2018-06-27T06:43:02.664Z,1018.24
2018-06-27T06:44:02.653Z,1018.24
2018-06-27T06:45:02.674Z,1018.26
2018-06-27T06:46:02.699Z,1018.29
2018-06-27T06:47:02.650Z,1018.26
2018-06-27T06:48:02.613Z,1018.27
2018-06-27T06:49:02.599Z,1018.30
2018-06-27T06:50:02.589Z,1018.28
2018-06-27T06:51:02.580Z,1018.32
2018-06-27T06:52:02.582Z,1018.35
2018-06-27T06:53:02.582Z,1018.39
2018-06-27T06:54:02.566Z,1018.39
2018-06-27T06:55:02.537Z,1018.35
2018-06-27T06:56:02.524Z,1018.37
2018-06-27T06:57:02.514Z,1018.36
2018-06-27T06:58:02.530Z,1018.40
2018-06-27T06:59:02.491Z,1018.41
2018-06-27T07:00:02.481Z,1018.38
2018-06-27T07:01:02.469Z,1018.37
2018-06-27T07:02:02.459Z,1018.39
2018-06-27T07:03:02.478Z,1018.38
2018-06-27T07:04:02.437Z,1018.38
2018-06-27T07:05:02.501Z,1018.38
2018-06-27T07:06:02.421Z,1018.42
2018-06-27T07:07:02.405Z,1018.42
2018-06-27T07:08:02.395Z,1018.40
2018-06-27T07:09:02.411Z,1018.41
2018-06-27T07:10:02.389Z,1018.37
2018-06-27T07:11:02.402Z,1018.39
2018-06-27T07:12:02.353Z,1018.35
2018-06-27T07:13:02.339Z,1018.37
2018-06-27T07:14:02.362Z,1018.34
2018-06-27T07:15:02.318Z,1018.35
2018-06-27T07:16:02.307Z,1018.31
2018-06-27T07:17:02.301Z,1018.32
2018-06-27T07:18:02.285Z,1018.30
2018-06-27T07:19:02.275Z,1018.31
2018-06-27T07:20:02.297Z,1018.32
2018-06-27T07:21:02.253Z,1018.28
2018-06-27T07:22:02.244Z,1018.31
2018-06-27T07:23:02.232Z,1018.32
2018-06-27T07:24:02.222Z,1018.28
2018-06-27T07:25:02.236Z,1018.35
2018-06-27T07:26:02.203Z,1018.33
2018-06-27T07:27:02.190Z,1018.32
2018-06-27T07:28:02.180Z,1018.31
2018-06-27T07:29:02.169Z,1018.29
2018-06-27T07:30:02.203Z,1018.25
2018-06-27T07:31:02.167Z,1018.26
2018-06-27T07:32:02.136Z,1018.20
2018-06-27T07:33:02.132Z,1018.22
2018-06-27T07:34:02.115Z,1018.25
2018-06-27T07:35:02.136Z,1018.21
2018-06-27T07:36:02.180Z,1018.23
2018-06-27T07:37:02.084Z,1018.15
2018-06-27T07:38:02.073Z,1018.16
2018-06-27T07:39:02.063Z,1018.18
2018-06-27T07:40:02.063Z,1018.21
2018-06-27T07:41:02.085Z,1018.19
2018-06-27T07:42:02.031Z,1018.17
2018-06-27T07:43:02.021Z,1018.20
2018-06-27T07:44:02.033Z,1018.15
2018-06-27T07:45:02.000Z,1018.14
2018-06-27T07:46:02.017Z,1018.08
2018-06-27T07:47:01.979Z,1018.11
2018-06-27T07:48:01.967Z,1018.14
2018-06-27T07:49:01.957Z,1018.13
2018-06-27T07:50:01.950Z,1018.14
2018-06-27T07:51:01.937Z,1018.12
2018-06-27T07:52:01.950Z,1018.13
2018-06-27T07:53:01.917Z,1018.13
2018-06-27T07:54:01.928Z,1018.10
2018-06-27T07:55:01.898Z,1018.07
2018-06-27T07:56:01.886Z,1018.10
2018-06-27T07:57:01.899Z,1018.09
2018-06-27T07:58:01.864Z,1018.11
2018-06-27T07:59:01.851Z,1018.08
2018-06-27T08:00:01.842Z,1018.07
2018-06-27T08:01:01.831Z,1018.04
2018-06-27T08:02:01.847Z,1018.05
2018-06-27T08:03:01.810Z,1018.03
2018-06-27T08:04:01.800Z,1018.08
2018-06-27T08:05:01.790Z,1018.10
2018-06-27T08:06:01.782Z,1018.06
2018-06-27T08:07:01.816Z,1018.09
2018-06-27T08:08:01.757Z,1018.11
2018-06-27T08:09:01.748Z,1018.06
2018-06-27T08:10:01.736Z,1018.04
2018-06-27T08:11:01.730Z,1018.07
2018-06-27T08:12:01.738Z,1018.02
2018-06-27T08:13:01.704Z,1018.01
2018-06-27T08:14:01.695Z,1018.07
2018-06-27T08:15:01.683Z,1018.05
2018-06-27T08:16:01.672Z,1018.07
2018-06-27T08:17:01.704Z,1018.05
2018-06-27T08:18:01.822Z,1018.04
2018-06-27T08:19:01.640Z,1018.07
2018-06-27T08:20:01.633Z,1017.97
2018-06-27T08:21:01.618Z,1017.98
2018-06-27T08:22:01.635Z,1017.94
2018-06-27T08:23:01.596Z,1017.95
2018-06-27T08:24:01.586Z,1017.92
2018-06-27T08:25:01.580Z,1017.90
2018-06-27T08:26:01.650Z,1017.93
2018-06-27T08:27:01.594Z,1017.91
2018-06-27T08:28:01.543Z,1017.87
2018-06-27T08:29:01.532Z,1017.88
2018-06-27T08:30:01.525Z,1017.83
2018-06-27T08:31:01.511Z,1017.87
2018-06-27T08:32:01.525Z,1017.85
2018-06-27T08:33:01.487Z,1017.83
2018-06-27T08:34:01.476Z,1017.79
2018-06-27T08:35:01.469Z,1017.85
2018-06-27T08:36:01.455Z,1017.77
2018-06-27T08:37:01.471Z,1017.73
2018-06-27T08:38:01.433Z,1017.81
2018-06-27T08:39:01.422Z,1017.81
2018-06-27T08:40:01.425Z,1017.81
2018-06-27T08:41:01.400Z,1017.80
2018-06-27T08:42:01.396Z,1017.74
2018-06-27T08:43:01.404Z,1017.75
2018-06-27T08:44:01.369Z,1017.79
2018-06-27T08:45:01.359Z,1017.75
2018-06-27T08:46:01.348Z,1017.81
2018-06-27T08:47:01.337Z,1017.80
2018-06-27T08:48:01.348Z,1017.79
2018-06-27T08:49:01.314Z,1017.77
2018-06-27T08:50:01.395Z,1017.74
2018-06-27T08:51:01.293Z,1017.69
2018-06-27T08:52:01.283Z,1017.67
2018-06-27T08:53:01.308Z,1017.66
2018-06-27T08:54:01.262Z,1017.64
2018-06-27T08:55:01.251Z,1017.64
2018-06-27T08:56:01.244Z,1017.59
2018-06-27T08:57:01.228Z,1017.62
2018-06-27T08:58:01.217Z,1017.62
2018-06-27T08:59:01.231Z,1017.61
2018-06-27T09:00:01.198Z,1017.62
2018-06-27T09:01:01.194Z,1017.55
2018-06-27T09:02:01.175Z,1017.60
2018-06-27T09:03:01.168Z,1017.56
2018-06-27T09:04:01.177Z,1017.53
2018-06-27T09:05:01.144Z,1017.57
2018-06-27T09:06:01.138Z,1017.56
2018-06-27T09:07:01.122Z,1017.50
2018-06-27T09:08:01.111Z,1017.52
2018-06-27T09:09:01.126Z,1017.54
2018-06-27T09:10:01.094Z,1017.55
2018-06-27T09:11:01.081Z,1017.52
2018-06-27T09:12:01.069Z,1017.49
2018-06-27T09:13:01.073Z,1017.46
2018-06-27T09:14:01.071Z,1017.51
2018-06-27T09:15:01.037Z,1017.47
2018-06-27T09:16:01.026Z,1017.43
2018-06-27T09:17:01.017Z,1017.50
2018-06-27T09:18:01.005Z,1017.50
2018-06-27T09:19:01.022Z,1017.49
2018-06-27T09:20:00.983Z,1017.48
2018-06-27T09:21:00.974Z,1017.51
2018-06-27T09:22:00.963Z,1017.43
2018-06-27T09:23:00.954Z,1017.49
2018-06-27T09:24:00.941Z,1017.45
2018-06-27T09:25:00.956Z,1017.43
2018-06-27T09:26:00.939Z,1017.45
2018-06-27T09:27:00.909Z,1017.43
2018-06-27T09:28:00.899Z,1017.40
2018-06-27T09:29:00.887Z,1017.41
2018-06-27T09:30:00.910Z,1017.41
2018-06-27T09:31:00.866Z,1017.40
2018-06-27T09:32:00.857Z,1017.39
2018-06-27T09:33:00.847Z,1017.38
2018-06-27T09:34:00.840Z,1017.36
2018-06-27T09:35:00.823Z,1017.36
2018-06-27T09:36:00.861Z,1017.34
2018-06-27T09:37:00.804Z,1017.39
2018-06-27T09:38:00.791Z,1017.29
2018-06-27T09:39:00.780Z,1017.26
2018-06-27T09:40:00.771Z,1017.28
2018-06-27T09:41:00.786Z,1017.27
2018-06-27T09:42:00.798Z,1017.32
2018-06-27T09:43:00.736Z,1017.27
2018-06-27T09:44:00.726Z,1017.29
2018-06-27T09:45:00.715Z,1017.25
2018-06-27T09:46:00.744Z,1017.28
2018-06-27T09:47:00.700Z,1017.27
2018-06-27T09:48:00.685Z,1017.29
2018-06-27T09:49:00.690Z,1017.33
2018-06-27T09:50:00.665Z,1017.30
2018-06-27T09:51:00.682Z,1017.31
2018-06-27T09:52:00.640Z,1017.28
2018-06-27T09:53:00.641Z,1017.23
2018-06-27T09:54:00.621Z,1017.21
2018-06-27T09:55:00.608Z,1017.23
2018-06-27T09:56:00.630Z,1017.19
2018-06-27T09:57:00.656Z,1017.20
2018-06-27T09:58:00.579Z,1017.14
2018-06-27T09:59:00.588Z,1017.19
2018-06-27T10:00:00.560Z,1017.16
2018-06-27T10:01:00.544Z,1017.14
2018-06-27T10:02:00.585Z,1017.08
2018-06-27T10:03:00.526Z,1017.10
2018-06-27T10:04:00.512Z,1017.07
2018-06-27T10:05:00.502Z,1017.08
2018-06-27T10:06:00.491Z,1017.04
2018-06-27T10:07:00.503Z,1017.00
2018-06-27T10:08:00.469Z,1017.03
2018-06-27T10:09:00.459Z,1017.02
2018-06-27T10:10:00.448Z,1016.99
2018-06-27T10:11:00.437Z,1017.00
2018-06-27T10:12:00.473Z,1017.02
2018-06-27T10:13:00.418Z,1016.94
2018-06-27T10:14:00.408Z,1016.91
2018-06-27T10:15:00.396Z,1016.91
2018-06-27T10:16:00.385Z,1016.88
2018-06-27T10:17:00.473Z,1016.90
2018-06-27T10:18:00.391Z,1016.86
2018-06-27T10:19:00.353Z,1016.88
2018-06-27T10:20:00.343Z,1016.85
2018-06-27T10:21:00.333Z,1016.84
2018-06-27T10:22:00.328Z,1016.83
2018-06-27T10:23:00.343Z,1016.80
2018-06-27T10:24:00.301Z,1016.76
2018-06-27T10:25:00.291Z,1016.72
2018-06-27T10:26:00.283Z,1016.75
2018-06-27T10:27:00.269Z,1016.75
2018-06-27T10:28:00.287Z,1016.76
2018-06-27T10:29:00.254Z,1016.84
2018-06-27T10:30:00.238Z,1017.01
2018-06-27T10:31:00.229Z,1016.95
2018-06-27T10:32:00.240Z,1017.04
2018-06-27T10:33:00.207Z,1016.94
2018-06-27T10:34:00.225Z,1017.00
2018-06-27T10:35:00.187Z,1016.98
2018-06-27T10:36:00.178Z,1017.06
2018-06-27T10:37:00.188Z,1017.11
2018-06-27T10:38:00.157Z,1017.08
2018-06-27T10:39:00.170Z,1017.13
2018-06-27T10:40:00.137Z,1017.13
2018-06-27T10:41:00.127Z,1017.14
2018-06-27T10:42:00.119Z,1017.15
2018-06-27T10:43:00.109Z,1017.18
2018-06-27T10:44:00.127Z,1017.21
2018-06-27T10:45:00.119Z,1017.15
2018-06-27T10:46:00.086Z,1017.24
2018-06-27T10:47:00.079Z,1017.20
2018-06-27T10:48:00.068Z,1017.21
2018-06-27T10:49:00.093Z,1017.24
2018-06-27T10:50:00.055Z,1017.20
2018-06-27T10:51:00.047Z,1017.27
2018-06-27T10:52:00.042Z,1017.28
2018-06-27T10:53:00.035Z,1017.25
2018-06-27T10:54:00.052Z,1017.23
2018-06-27T10:55:00.090Z,1017.22
2018-06-27T10:55:59.998Z,1017.20
2018-06-27T10:57:00.011Z,1017.15
2018-06-27T10:58:00.042Z,1017.16
2018-06-27T10:58:59.972Z,1017.18
2018-06-27T10:59:59.972Z,1017.22
2018-06-27T11:01:00.070Z,1017.19
2018-06-27T11:01:59.985Z,1017.26
2018-06-27T11:02:59.971Z,1017.25
2018-06-27T11:03:59.993Z,1017.22
2018-06-27T11:04:59.933Z,1017.22
2018-06-27T11:06:00.031Z,1017.23
2018-06-27T11:06:59.942Z,1017.19
2018-06-27T11:07:59.941Z,1017.17
2018-06-27T11:08:59.890Z,1017.20
2018-06-27T11:09:59.910Z,1017.20
2018-06-27T11:10:59.900Z,1017.18
2018-06-27T11:11:59.895Z,1017.14
2018-06-27T11:12:59.880Z,1017.19
2018-06-27T11:13:59.872Z,1017.12
2018-06-27T11:14:59.896Z,1017.09
2018-06-27T11:15:59.863Z,1017.07
2018-06-27T11:16:59.847Z,1017.00
2018-06-27T11:17:59.822Z,1017.03
2018-06-27T11:18:59.847Z,1017.05
2018-06-27T11:19:59.808Z,1017.02
2018-06-27T11:20:59.825Z,1017.07
2018-06-27T11:21:59.793Z,1016.51
2018-06-27T11:22:59.785Z,1016.31
2018-06-27T11:23:59.778Z,1016.34
2018-06-27T11:24:59.802Z,1016.28
2018-06-27T11:25:59.785Z,1016.24
2018-06-27T11:26:59.823Z,1016.23
2018-06-27T11:27:59.748Z,1016.21
2018-06-27T11:28:59.737Z,1016.17
2018-06-27T11:29:59.727Z,1016.15
2018-06-27T11:30:59.741Z,1016.11
2018-06-27T11:31:59.708Z,1016.12
2018-06-27T11:32:59.702Z,1016.08
2018-06-27T11:33:59.692Z,1016.06
2018-06-27T11:34:59.693Z,1016.14
2018-06-27T11:35:59.705Z,1016.09
2018-06-27T11:36:59.661Z,1016.13
2018-06-27T11:37:59.652Z,1016.02
2018-06-27T11:38:59.643Z,1015.95
2018-06-27T11:39:59.640Z,1015.93
2018-06-27T11:40:59.626Z,1016.59
2018-06-27T11:41:59.647Z,1016.55
2018-06-27T11:42:59.604Z,1015.96
2018-06-27T11:43:59.606Z,1015.89
2018-06-27T11:44:59.596Z,1015.91
2018-06-27T11:45:59.580Z,1015.85
2018-06-27T11:46:59.567Z,1015.83
2018-06-27T11:47:59.585Z,1015.79
2018-06-27T11:48:59.561Z,1015.82
2018-06-27T11:49:59.537Z,1015.80
2018-06-27T11:50:59.530Z,1015.81
2018-06-27T11:51:59.517Z,1015.87
2018-06-27T11:52:59.545Z,1015.82
2018-06-27T11:53:59.499Z,1015.84
2018-06-27T11:54:59.487Z,1015.84
2018-06-27T11:55:59.478Z,1015.87
2018-06-27T11:56:59.468Z,1015.86
2018-06-27T11:57:59.495Z,1015.83
2018-06-27T11:58:59.449Z,1016.38
2018-06-27T11:59:59.441Z,1016.35
2018-06-27T12:00:59.432Z,1016.28
2018-06-27T12:01:59.430Z,1016.23
2018-06-27T12:02:59.436Z,1016.30
2018-06-27T12:03:59.398Z,1016.25
2018-06-27T12:04:59.389Z,1015.95